Lake Village, AR

10:14 AM CST on March 03, 2015 (GMT -0600)
Mid Delta Regional | Change Station
CLOSE
Current Station
Airport
Location: Greenville,
Elevation: 131 ft
Nearby Weather Stations
Active Advisory: Winter Storm Watch

Elev 131 ft 33.48 °N, 90.99 °W | Updated 21 minutes ago

Fog
Fog
49 °F
Feels Like 49 °F
N
5
Wind Variable Wind from SSW

Today
High -- | Low -- °F
--% Chance of Precip.
Yesterday
High -- | Low -- °F
Precip. -- in
6:31 AM 6:03 PM
Waxing Gibbous, 96% visible
Pressure 30.11 in
Visibility 0.5 miles
Clouds
Dew Point 48 °F
Humidity 97%
Rainfall 0.00 in
Snow Depth Not available.
UV Not available.
Pollen 8.10 out of 12
Air Quality Not available.
Flu Activity Not available.
METAR KGLH 031553Z AUTO 21004KT 1/2SM FG VV002 09/09 A3008 RMK AO2 SLP195 T00940089

More Conditions Fewer Conditions

Pressure 30.11 in
Visibility 0.5 miles
Clouds
Dew Point 48 °F
Humidity 97%
Rainfall 0.00 in
Snow Depth Not available.
UV Not available.
Pollen 8.10 out of 12
Air Quality Not available.
Flu Activity Not available.
METAR KGLH 031553Z AUTO 21004KT 1/2SM FG VV002 09/09 A3008 RMK AO2 SLP195 T00940089

More Conditions Fewer Conditions

10-Day Weather Forecast

Almanac

Astronomy

Mar. 03, 2015 Rise Set
Actual Time
Civil Twilight
Nautical Twilight
Astronomical Twilight
Moon
Length of Visible Light
Length of Day
Tomorrow will be .
, % of the Moon is Illuminated

Today's Extremes

State Highs State Lows

Community

WunderPhotos

Upload Photos

1,802,156 photos uploaded!

WunderBlogs® & News

Nearby

Air Quality

  Air Quality AQ Index Pollutant
Not available.

Snow Depth

Station Depth Elevation

Earthquake Activity

City Distance Mag. Time & Date
Minimum magnitude displayed is 2.5.

Coastal Water Temperatures

Place Temperature

Nearby Weather Stations

Winter Storm Watch
Statement as of 4:40 AM CST on March 03, 2015

... Winter Storm Watch remains in effect from Wednesday evening
through late Wednesday night...

A Winter Storm Watch remains in effect from Wednesday evening
through late Wednesday night.

* Timing: a mix of freezing rain and sleet is expected to develop
Wednesday evening and continue through the overnight. Some snow
could mix in with the precipitation before daybreak.

* Accumulation: significant amounts of ice and sleet are possible.

* Impacts: hazardous travel conditions are likely with power
outages possible.

Precautionary/preparedness actions...

A Winter Storm Watch means there is a potential for significant
snow... sleet... or ice accumulations that may impact travel.
Continue to monitor the latest forecasts.